Aérodrome :
LOGIN :

S'inscrire | Disclaimer

   EN    FR    IT 

 










Légende :    VFR   VFR Marginal   IFR   IFR Intensif   IFR Très Intensif
Visi : 
Plafond : 
>= 8 km
>= 3000ft
5 à 8 km
1000 à 3000 ft
1500m à 5 km
500 à 1000 ft
800 à 1500m
200 à 500 ft
< 800m
< 200 ft
Symboles :   Orages  Brouillard  Fortes neiges  Fortes précipitations  Vent > 20 kt
SIGMETs :   Divers  Orages  Givrage  Turbulence  Onde Orograph.  Cendres Volcan.







- Altitude de l'aérodrome : 250 ft


LERI - Alcantarilla

DERNIER METAR :
  • 141200Z 15001KT CAVOK 16/02 Q1020 NOSIG

METARs EXPIRÉS :
  • 141100Z 00000KT CAVOK 15/01 Q1022 NOSIG
  • 141000Z VRB01KT CAVOK 12/01 Q1022 NOSIG

TAF TAF LERI
Valide du 14 à 12h jusqu'au 14 à 21h UTC


141100Z 1412/1421 24005KT CAVOK
Pas de NOTAMs connus pour ce terrain.
1 SIGMET publié pour la FIR Barcelona (LECB) :
 
Turbulence forte
LECB SIGMET 1 VALID 141144/141500 LEVA
LECB BARCELONA FIR SEV TURB OBS AT 1144Z WI N4010 W00050 - N39 W00050 - N39 E00030 - N4010 E00030 - N4010 W00050 FL070/100 STNR NC=



MET'MAP, la Météo Aéronautique d'un coup d'oeil ! - Copyright ORBIFLY Décembre 2007 - Disclaimer

ORBIFLY MET'MAP TEAM :

Programmation & Développement : Alexandra Zaïnal
Conception & Développement : Baudouin d'Aumeries
Co-Programmation & Développement : Marc-Olivier Méhu
Soutien technique & logistique : Manuel Goepfert

Contact : metmap@orbifly.com




SOURCES & CREDITS :

   NOAA